Flight Track Log - Related Links

Times and Time Zones

All times are in EDT time to prevent confusion due to time zone crossing. See the N45EJ flight status page for this flight to view local times or setup timezone preferences in your user account.

Time Position Orientation Groundspeed Altitude Reporting Facility
EDT Latitude Longitude Course Direction KTS MPH feet Rate Location/Type
Thu 09:14:29 AM 42.0906 -87.8669 48° Northeast 196 226 1,800  Level Chicago Center
Thu 09:15:31 AM 42.1344 -87.8011 48° Northeast 257 296 4,500 3,072 Climbing Chicago Center
Thu 09:16:34 AM 42.1772 -87.7214 54° Northeast 281 323 8,200 3,792 Climbing Chicago Center
Thu 09:17:36 AM 42.1464 -87.5956 108° East 302 348 12,400 3,581 Climbing Chicago Center
Thu 09:18:38 AM 42.1061 -87.4903 117° Southeast 314 361 15,600 2,903 Climbing Chicago Center
Thu 09:19:40 AM 42.0644 -87.3822 117° Southeast 323 372 18,400 1,742 Climbing Chicago Center
Thu 09:20:42 AM 42.0186 -87.2592 117° Southeast 372 428 19,200 1,306 Climbing Chicago Center
Thu 09:21:44 AM 41.9669 -87.1225 117° Southeast 406 467 21,100 1,790 Climbing Chicago Center
Thu 09:22:46 AM 41.9467 -86.9736 100° East 412 474 22,900 919 Climbing Chicago Center
Thu 09:23:48 AM 41.9269 -86.7778 98° East 441 507 23,000 48 Climbing Chicago Center
Thu 09:24:50 AM 41.9056 -86.6244 101° East 445 512 23,000 -48 Level Chicago Center
Thu 09:25:52 AM 41.8825 -86.4617 101° East 445 512 22,900 -387 Descending Chicago Center
Thu 09:26:54 AM 41.8608 -86.3017 100° East 439 505 22,200 -774 Descending Chicago Center
Thu 09:27:56 AM 41.8328 -86.1083 101° East 442 509 21,300 -576 Descending Chicago Center
Thu 09:28:59 AM 41.8100 -85.9467 101° East 442 509 21,000 -144 Descending Chicago Center
Thu 09:30:01 AM 41.7461 -85.8197 124° Southeast 429 494 21,000  Level Chicago Center
Thu 09:31:03 AM 41.6436 -85.7453 152° Southeast 425 489 21,000  Level Chicago Center
Thu 09:32:05 AM 41.5414 -85.6731 152° Southeast 423 487 21,000  Level Chicago Center
Thu 09:33:07 AM 41.4197 -85.5844 151° Southeast 423 487 21,000  Level Chicago Center
Thu 09:34:09 AM 41.3172 -85.5117 152° Southeast 423 487 21,000  Level Chicago Center
Thu 09:35:11 AM 41.2128 -85.4378 152° Southeast 427 491 21,000  Level Chicago Center
Thu 09:36:13 AM 41.1083 -85.3669 153° Southeast 425 489 21,000  Level Chicago Center
Thu 09:37:15 AM 40.9994 -85.2897 152° Southeast 440 506 21,000  Level Chicago Center
Thu 09:38:17 AM 40.8669 -85.1969 152° Southeast 450 518 21,000 -581 Level Chicago Center
Thu 09:39:19 AM 40.7581 -85.1225 153° Southeast 445 512 19,800 -1,548 Descending Chicago Center
Thu 09:40:21 AM 40.6528 -85.0503 152° Southeast 434 499 17,800 -1,604 Descending Chicago Center
Thu 09:41:00 AM 40.5922 -85.0103 153° Southeast 429 494 17,100 -412 Descending Indianapolis Center
Thu 09:42:03 AM 40.4706 -84.9267 152° Southeast 415 478 17,100 -466 Level Indianapolis Center
Thu 09:42:56 AM 40.3794 -84.8656 153° Southeast 411 473 16,200 -1,306 Descending Indianapolis Center
Thu 09:44:07 AM 40.2694 -84.7906 153° Southeast 405 466 14,400 -1,669 Descending Indianapolis Center
Thu 09:45:09 AM 40.1717 -84.7244 153° Southeast 401 461 12,500 -1,742 Descending Indianapolis Center
Thu 09:46:11 AM 40.0844 -84.6675 153° Southeast 380 437 10,800 -1,790 Descending Indianapolis Center
Thu 09:47:13 AM 40.0078 -84.6175 153° Southeast 353 406 8,800 -2,156 Descending Indianapolis Center
Thu 09:48:19 AM 39.9228 -84.5581 152° Southeast 281 323 6,200 -1,306 Descending Indianapolis Center
Thu 09:49:17 AM 39.8594 -84.5175 154° Southeast 293 337 6,100 -47 Descending Indianapolis Center
Thu 09:50:27 AM 39.7814 -84.4639 152° Southeast 270 311 6,100 -194 Level Indianapolis Center
Thu 09:51:21 AM 39.7292 -84.4289 153° Southeast 273 314 5,700 -983 Descending Indianapolis Center
Thu 09:52:23 AM 39.6575 -84.3814 153° Southeast 238 274 4,200 -871 Descending Indianapolis Center
Thu 09:52:23 AM 39.6575 -84.3814 153° Southeast 271 312 4,800 -1,279 Climbing Indianapolis Center
Thu 09:53:24 AM 39.6008 -84.3411 151° Southeast 232 267 2,900 -1,082 Descending Indianapolis Center
Thu 09:54:25 AM 39.5589 -84.3011 144° Southeast 173 199 2,600 -295 Descending Indianapolis Center
Thu 09:56:00 AM 39.4622 -84.2518 166° South  Level Estimated
Thu 10:03:00 AM 39.4622 -84.2518 166° South  Level Estimated
Thu 10:04:00 AM 39.4622 -84.2518 166° South  Level Estimated
Thu 10:05:00 AM 39.4622 -84.2518 166° South  Level Estimated

Login

Don't have an account? Register now (free) for customized features, flight alerts, and more!